Airfield :
LOGIN :

Register | Disclaimer

   EN    FR    IT 

 










Legend :    VFR   Marginal VFR   IFR   Intensive IFR   Very Intensive IFR
Visi :
Ceiling :
>= 8 km
>= 3000ft
5 to 8 km
1000 to 3000 ft
1500m to 5 km
500 to 1000 ft
800 to 1500m
200 to 500 ft
< 800m
< 200 ft
Symbols :   Thunderstorms  Fog  Heavy snow  Heavy precipitations  Wind > 20 kt
SIGMETs :     Misc.  Thunderstorms  Icing  Turbulence  Mountain Waves  Volcanic Ashes






- Airport Elevation : 32 ft
- IATA code : LKZ


EGUL - RAF Lakenheath

CURRENT METAR :
  • 130516Z AUTO 29010KT 9999 -RA SCT006 BKN013 OVC019 06/05 A2867 RMK AO2 DZE11RAB11 CIG 006V013 BKN V OVC CIG 007 RWY06 SLP712 $

EXPIRED METARs :
  • 130501Z AUTO 28009KT 9999 -DZ OVC006 06/06 A2866 RMK AO2 SLP709 $
  • 130409Z AUTO 26008KT 9999 -DZ BKN008 OVC019 07/06 A2864 RMK AO2 RAE0356DZB0356E04DZB09 CIG 008V019 SLP702 $
  • 130401Z AUTO 26007KT 9999 -DZ SCT007 OVC019 07/06 A2864 RMK AO2 RAE0356DZB0356 CIG 008 RWY06 SLP702 $
  • 130342Z AUTO 26008KT 9999 -RA SCT007 OVC023 07/06 A2863 RMK AO2 CIG 006V023 CIG 019 RWY06 SLP699 $
  • 130322Z AUTO 25006KT 9999 -RA OVC006 07/06 A2863 RMK AO2 SLP699 $
  • 130301Z AUTO 24006KT 9999 -RA BKN009 BKN012 OVC021 07/06 A2863 RMK AO2 CIG 009V012 SLP699 $
  • 130248Z AUTO 24006KT 9999 -RA OVC009 07/06 A2863 RMK AO2 RAB38 CIG 009V011 SLP699 $
  • 130238Z AUTO 23006KT 9999 -RA OVC011 07/06 A2863 RMK AO2 RAB38 SLP699 $

TAF TAF EGUL
Valid from the 13 at 05:00 until the 14 at 11:00 UTC


130503Z 1305/1411 26010G20KT 9000 -SHRA BKN007 610409 611303 QNH2866INS
BECMG 1305/1306 26015G25KT 9000 -SHRA BKN010 610404 QNH2869INS
TEMPO 1309/1311 BKN015
BECMG 1310/1311 26015G25KT 9999 NSW BKN020 620404 QNH2885INS TX07/1314Z TN03/1403Z



MET'MAP, your aeronautical weather chart ! - Copyright ORBIFLY December 2007 - Disclaimer

ORBIFLY MET'MAP TEAM :

Programming & Development : Alexandra Zaïnal
Concept & original design : Baudouin d'Aumeries
Assistance for programming : Marc-Olivier Méhu
Technical & hardware support : Manuel Goepfert

Contact : metmap@orbifly.com




SOURCES & CREDITS :

   NOAA